EGGPEGNT

Guest
Details From EGGP - Liverpool John Lennon
To EGNT - Newcastle
Flight Number -
Tags Routegen
Created
Modified
Stats Distance 110 nm / 204 km
Max Altitude 0 ft / 0 m
Waypoints 2
Social Downloads 7
Likes 0
Share VATSIM

Download

Looking for another format? Having issues loading an existing format? Contact us
Advertisement - Login to hide

Notes

None

Route

EGGP EGNT

ID Type Via Altitude Latitude Longitude Leg Dist Tot Dist Heading (true) Name
O EGGP APT - 0 ft / 0 m 53.33288˚ -2.86602˚ - 0 nm - -
O EGNT APT - 0 ft / 0 m 55.03353˚ -1.70634˚ 109 nm 109 nm 21° / 22° -

Altitude Profile

Advertisement - Login to hide

EGGP

Details ICAO EGGP (LPL)
Name Liverpool
Region United Kingdom
Timezone Europe/London (UTC+1.0)
Stats Elevation 80 ft / 24 m (AMSL)
Location 53.333632° -2.849769°
Runways 1
Magnetic Variation 1.604° W

METAR

EGGP 251850Z 05014KT 9999 FEW012 SCT024 15/13 Q1020

Decode

TAF

TAF TAF EGGP 251656Z 2518/2618 03007KT 9999 FEW015 SCT030 TEMPO 2518/2609 BKN012 PROB30 TEMPO 2518/2520 8000 SHRA PROB30 TEMPO 2608/2612 7000 SHRA

Decode

Departure Runways

ID Width Length Bearing (true) Bearing (mag) Surface Threshold Offset Overrun Length
09 151 ft / 46 m 7,466 ft / 2,276 m 85.59° 87.19° Asphalt 180 ft / 55 m 0 ft / 0 m
27 151 ft / 46 m 7,466 ft / 2,276 m 265.61° 267.21° Asphalt 0 ft / 0 m 0 ft / 0 m

EGNT

Details ICAO EGNT (NCL)
Name Newcastle
Region United Kingdom
Timezone Europe/London (UTC+1.0)
Stats Elevation 266 ft / 81 m (AMSL)
Location 55.037922° -1.689833°
Runways 1
Magnetic Variation 1.405° W

METAR

EGNT 251850Z 03006KT 010V070 9000 FEW005 12/11 Q1024

Decode

TAF

TAF EGNT 251656Z 2518/2618 03009KT 9999 FEW010 PROB40 TEMPO 2518/2524 7000 SHRA BKN006 PROB30 TEMPO 2600/2608 3000 +SHRA BKN012

Decode

Destination Runways

ID Width Length Bearing (true) Bearing (mag) Surface Threshold Offset Overrun Length
07 151 ft / 46 m 7,621 ft / 2,323 m 65.13° 66.54° Asphalt 394 ft / 120 m 108 ft / 33 m
25 151 ft / 46 m 7,621 ft / 2,323 m 245.16° 246.57° Asphalt 446 ft / 136 m 56 ft / 17 m

Approach Navaids

Runway Type Ident Frequency Range Bearing (true) Bearing (mag) Slope Elevation
07 Localiser INC 111.50 MHz 18 nm / 33 km 65.18° 66.59° - 297 ft / 91 m (AMSL)
07 Glidescope INC 111.50 MHz 10 nm / 19 km 65.15° 66.55° 3.00° 297 ft / 91 m (AMSL)
07 DME INC 111.50 MHz 18 nm / 33 km - - - 256 ft / 78 m (AMSL)
25 Localiser INWC 111.50 MHz 18 nm / 33 km 245.12° 246.52° - 279 ft / 85 m (AMSL)
25 Glidescope INWC 111.50 MHz 10 nm / 19 km 245.15° 246.55° 3.00° 297 ft / 91 m (AMSL)
25 DME INWC 111.50 MHz 18 nm / 33 km - - - 256 ft / 78 m (AMSL)

Popular Alternatives